Time;durP1;ratioP1;P1;durP2;ratioP2;P2;SDS_P1;SDS_P2;PMS_P1;PMS_P2;Temp;Humidity;BMP_temperature;BMP_pressure;BME280_temperature;BME280_humidity;BME280_pressure;Samples;Min_cycle;Max_cycle;Signal;HPM_P1;HPM_P2
2021/01/14 00:01:08;;;;;;;1.98;1.20;;;;;;;4.83;88.77;99318.13;5034781;28;20206;-72
2021/01/14 00:03:34;;;;;;;2.45;1.45;;;;;;;4.83;87.27;99318.97;5034775;28;20208;-72
2021/01/14 00:06:04;;;;;;;1.80;1.20;;;;;;;4.67;88.43;99316.03;5034995;28;20597;-72
2021/01/14 00:08:30;;;;;;;1.25;1.15;;;;;;;4.63;88.55;99314.41;5034698;28;20214;-72
2021/01/14 00:10:58;;;;;;;1.38;1.17;;;;;;;4.48;88.97;99315.03;5034837;28;20285;-72
2021/01/14 00:13:24;;;;;;;1.00;0.88;;;;;;;4.20;89.48;99317.81;5034726;28;20266;-73
2021/01/14 00:15:51;;;;;;;1.55;1.10;;;;;;;4.18;91.43;99320.53;5035094;28;20204;-72
2021/01/14 00:18:17;;;;;;;1.10;0.90;;;;;;;4.11;90.09;99319.03;5034828;28;20215;-72
2021/01/14 00:20:43;;;;;;;0.80;0.80;;;;;;;4.00;89.92;99327.41;5034704;28;20205;-71
2021/01/14 00:23:10;;;;;;;1.30;1.20;;;;;;;3.99;90.40;99331.00;5034614;28;20190;-72
2021/01/14 00:25:36;;;;;;;2.05;1.40;;;;;;;3.89;90.42;99338.44;5034885;28;20222;-71
2021/01/14 00:28:04;;;;;;;1.13;1.10;;;;;;;3.91;90.75;99331.28;5034790;28;20316;-72
2021/01/14 00:30:32;;;;;;;0.90;0.90;;;;;;;3.92;90.41;99342.81;5034779;28;20614;-71
2021/01/14 00:32:59;;;;;;;1.30;1.20;;;;;;;3.91;89.83;99333.94;5034550;28;20191;-71
2021/01/14 00:35:26;;;;;;;1.65;1.15;;;;;;;3.92;89.32;99333.00;5034781;28;20209;-71
2021/01/14 00:37:52;;;;;;;3.15;0.80;;;;;;;3.97;88.41;99319.53;5034694;28;20192;-71
2021/01/14 00:40:21;;;;;;;1.95;1.42;;;;;;;3.94;88.59;99315.19;5034193;28;20294;-72
2021/01/14 00:42:54;;;;;;;2.00;1.00;;;;;;;3.97;87.70;99308.88;5034445;28;20696;-72
2021/01/14 00:45:21;;;;;;;2.05;1.40;;;;;;;3.88;87.76;99299.41;5034460;28;20298;-71
2021/01/14 00:47:47;;;;;;;1.90;1.02;;;;;;;3.88;86.92;99327.84;5033997;28;20253;-71
2021/01/14 00:50:13;;;;;;;1.77;1.65;;;;;;;3.89;86.90;99330.47;5034776;28;20600;-71
2021/01/14 00:52:40;;;;;;;1.80;0.82;;;;;;;3.91;87.24;99343.69;5034296;28;20192;-72
2021/01/14 00:55:08;;;;;;;1.40;0.95;;;;;;;3.87;87.20;99336.78;5034197;28;20217;-71
2021/01/14 00:57:35;;;;;;;1.73;1.23;;;;;;;3.95;86.81;99338.22;5034327;28;20225;-72
2021/01/14 01:00:01;;;;;;;2.45;1.15;;;;;;;4.02;86.07;99330.00;5034001;28;20207;-72
2021/01/14 01:02:28;;;;;;;1.38;1.23;;;;;;;3.94;86.99;99333.81;5034399;28;20186;-73
2021/01/14 01:04:54;;;;;;;1.20;1.10;;;;;;;4.07;85.41;99339.59;5033783;28;20210;-71
2021/01/14 01:07:21;;;;;;;2.83;1.60;;;;;;;4.02;85.56;99330.88;5034200;28;20252;-72
2021/01/14 01:09:47;;;;;;;1.75;1.65;;;;;;;4.14;85.87;99332.25;5034026;28;20213;-72
2021/01/14 01:12:13;;;;;;;2.10;1.25;;;;;;;4.02;85.79;99327.34;5034303;28;20639;-71
2021/01/14 01:14:39;;;;;;;2.85;1.65;;;;;;;4.04;86.52;99339.69;5034637;28;20646;-72
2021/01/14 01:17:06;;;;;;;2.08;1.73;;;;;;;3.99;86.94;99351.44;5034294;28;20194;-71
2021/01/14 01:19:33;;;;;;;2.78;1.33;;;;;;;3.97;87.42;99336.38;5033886;28;20640;-70
2021/01/14 01:21:59;;;;;;;1.75;1.55;;;;;;;4.11;87.12;99343.00;5033794;28;20281;-71
2021/01/14 01:24:26;;;;;;;3.20;1.52;;;;;;;3.97;87.53;99343.50;5033616;28;20217;-72
2021/01/14 01:26:52;;;;;;;3.28;2.25;;;;;;;4.16;86.91;99341.03;5033444;28;20225;-69
2021/01/14 01:29:19;;;;;;;2.40;1.73;;;;;;;4.18;87.51;99331.19;5033421;28;20290;-71
2021/01/14 01:31:45;;;;;;;3.90;2.33;;;;;;;4.34;86.51;99343.06;5033775;28;20632;-69
2021/01/14 01:34:11;;;;;;;5.18;3.00;;;;;;;4.44;85.78;99348.06;5033758;28;20315;-70
2021/01/14 01:36:38;;;;;;;1.85;1.33;;;;;;;4.30;85.78;99353.88;5033285;28;20274;-71
2021/01/14 01:39:05;;;;;;;2.53;1.90;;;;;;;4.23;86.70;99360.34;5033136;28;20216;-72
2021/01/14 01:41:31;;;;;;;2.30;2.00;;;;;;;4.15;87.14;99365.97;5033288;28;20201;-72
2021/01/14 01:43:58;;;;;;;1.73;1.30;;;;;;;4.12;87.29;99374.06;5033248;28;20280;-71
2021/01/14 01:46:26;;;;;;;2.03;1.58;;;;;;;4.11;87.53;99383.84;5033478;28;20730;-72
2021/01/14 01:48:54;;;;;;;2.55;1.38;;;;;;;4.02;88.37;99380.63;5033635;28;20221;-72
2021/01/14 01:51:20;;;;;;;10.77;1.85;;;;;;;4.03;89.02;99385.91;5033142;28;20320;-71
2021/01/14 01:53:47;;;;;;;3.08;2.38;;;;;;;4.03;87.93;99385.06;5033206;28;20226;-69
2021/01/14 01:56:15;;;;;;;1.65;1.15;;;;;;;3.95;88.34;99375.50;5033452;28;20273;-71
2021/01/14 01:58:41;;;;;;;3.58;2.85;;;;;;;4.05;88.47;99373.41;5033094;28;20319;-71
2021/01/14 02:01:08;;;;;;;2.30;2.10;;;;;;;4.00;89.01;99382.47;5033357;28;20290;-71
2021/01/14 02:03:34;;;;;;;2.55;1.50;;;;;;;4.15;87.81;99381.94;5033223;28;20205;-71
2021/01/14 02:06:01;;;;;;;2.00;1.25;;;;;;;4.21;87.10;99379.06;5032900;28;20620;-70
2021/01/14 02:08:37;;;;;;;1.50;1.38;;;;;;;4.20;87.46;99373.78;5032964;28;20326;-72
2021/01/14 02:11:10;;;;;;;4.15;1.85;;;;;;;4.17;87.00;99374.78;5032775;28;20191;-71
2021/01/14 02:13:47;;;;;;;2.97;2.00;;;;;;;4.02;88.45;99369.97;5033016;28;20641;-72
2021/01/14 02:16:14;;;;;;;3.92;2.20;;;;;;;4.04;88.23;99376.13;5033008;28;20642;-70
2021/01/14 02:18:42;;;;;;;2.20;1.75;;;;;;;4.16;88.23;99371.25;5032827;28;20661;-71
2021/01/14 02:21:12;;;;;;;2.25;1.98;;;;;;;4.14;88.33;99357.09;5032087;28;20291;-70
2021/01/14 02:23:51;;;;;;;3.17;1.55;;;;;;;4.09;88.59;99366.16;5032424;28;20287;-73
2021/01/14 02:26:21;;;;;;;1.77;1.65;;;;;;;4.31;87.67;99380.47;5032237;28;20215;-71
2021/01/14 02:28:51;;;;;;;3.58;1.92;;;;;;;4.08;88.53;99372.44;5032340;28;20348;-70
2021/01/14 02:31:18;;;;;;;4.82;1.38;;;;;;;4.01;89.79;99373.59;5032472;28;20190;-71
2021/01/14 02:33:44;;;;;;;1.77;1.60;;;;;;;4.24;88.46;99381.63;5032708;28;20198;-71
2021/01/14 02:36:13;;;;;;;3.17;2.13;;;;;;;4.31;87.71;99382.28;5032097;28;20211;-69
2021/01/14 02:38:39;;;;;;;4.85;2.15;;;;;;;4.25;87.79;99375.38;5032388;28;20198;-71
2021/01/14 02:41:06;;;;;;;2.35;2.10;;;;;;;4.18;88.44;99387.16;5032159;28;20235;-71
2021/01/14 02:43:33;;;;;;;2.95;1.95;;;;;;;4.29;88.67;99392.13;5032401;28;20639;-69
2021/01/14 02:45:59;;;;;;;2.35;1.52;;;;;;;4.50;86.88;99377.13;5031929;28;20301;-70
2021/01/14 02:48:33;;;;;;;3.97;1.65;;;;;;;4.34;87.44;99376.81;5032322;28;20295;-71
2021/01/14 02:51:07;;;;;;;2.08;1.73;;;;;;;4.36;87.26;99370.53;5031904;28;20246;-71
2021/01/14 02:53:34;;;;;;;3.22;2.38;;;;;;;4.27;87.84;99388.63;5031996;28;20653;-69
2021/01/14 02:56:00;;;;;;;2.22;1.75;;;;;;;4.16;89.61;99378.34;5031915;28;20200;-70
2021/01/14 02:58:30;;;;;;;2.63;2.08;;;;;;;4.08;89.78;99397.28;5032291;28;20218;-68
2021/01/14 03:00:57;;;;;;;7.50;1.95;;;;;;;4.31;89.17;99387.59;5031853;28;20306;-73
2021/01/14 03:03:23;;;;;;;2.85;2.35;;;;;;;4.38;88.42;99397.13;5032294;28;20272;-69
2021/01/14 03:05:49;;;;;;;3.22;1.77;;;;;;;4.30;88.05;99405.41;5031960;28;20408;-71
2021/01/14 03:08:15;;;;;;;1.50;1.40;;;;;;;4.23;88.65;99393.22;5031963;28;20245;-71
2021/01/14 03:10:43;;;;;;;2.30;1.55;;;;;;;4.16;89.22;99399.66;5031795;28;20279;-71
2021/01/14 03:13:09;;;;;;;2.35;2.00;;;;;;;4.12;89.91;99406.06;5032093;28;20296;-71
2021/01/14 03:15:35;;;;;;;3.65;2.00;;;;;;;4.10;90.32;99405.22;5032246;28;20972;-71
2021/01/14 03:18:02;;;;;;;2.70;2.40;;;;;;;4.16;90.37;99395.22;5032274;28;20326;-70
2021/01/14 03:20:28;;;;;;;5.05;2.53;;;;;;;4.15;90.17;99392.59;5032144;28;20198;-69
2021/01/14 03:22:55;;;;;;;3.63;2.88;;;;;;;4.05;91.29;99393.84;5031998;28;20209;-70
2021/01/14 03:25:21;;;;;;;4.55;2.85;;;;;;;4.12;91.72;99398.06;5032323;28;20272;-69
2021/01/14 03:27:47;;;;;;;2.97;1.95;;;;;;;4.00;92.29;99393.13;5031862;28;20695;-71
2021/01/14 03:30:14;;;;;;;3.10;2.45;;;;;;;4.01;93.27;99397.56;5032186;28;20192;-69
2021/01/14 03:32:41;;;;;;;2.08;1.75;;;;;;;3.97;92.86;99405.63;5032370;28;20319;-70
2021/01/14 03:35:09;;;;;;;2.72;2.10;;;;;;;4.01;93.46;99408.22;5035890;28;20241;-71
2021/01/14 03:37:40;;;;;;;4.07;2.35;;;;;;;4.51;90.08;99409.06;5035959;28;20195;-71
2021/01/14 03:40:07;;;;;;;3.00;2.10;;;;;;;4.37;89.88;99406.91;5035697;28;20207;-70
2021/01/14 03:42:34;;;;;;;4.10;2.15;;;;;;;4.49;89.57;99407.41;5035746;28;20214;-70
2021/01/14 03:45:00;;;;;;;3.65;2.35;;;;;;;4.36;89.88;99407.84;5035613;28;20213;-70
2021/01/14 03:47:26;;;;;;;3.65;2.30;;;;;;;4.33;90.96;99401.75;5035825;28;20235;-70
2021/01/14 03:49:52;;;;;;;2.63;1.60;;;;;;;4.24;90.50;99394.94;5035969;28;20423;-70
2021/01/14 03:52:19;;;;;;;3.80;2.03;;;;;;;4.53;89.67;99395.69;5035907;28;20191;-70
2021/01/14 03:54:46;;;;;;;4.18;2.70;;;;;;;4.42;89.71;99400.56;5035755;28;20710;-70
2021/01/14 03:57:13;;;;;;;4.00;2.80;;;;;;;4.34;90.10;99404.38;5035263;28;20295;-72
2021/01/14 03:59:39;;;;;;;2.95;2.20;;;;;;;4.20;91.08;99400.44;5035406;28;20564;-70
2021/01/14 04:02:06;;;;;;;3.70;1.80;;;;;;;4.08;92.52;99399.06;5035111;28;20209;-72
2021/01/14 04:04:34;;;;;;;3.80;2.92;;;;;;;4.22;91.01;99396.78;5035128;28;20186;-71
2021/01/14 04:07:00;;;;;;;4.68;2.60;;;;;;;4.28;90.33;99396.59;5035192;28;20211;-71
2021/01/14 04:09:28;;;;;;;6.05;3.35;;;;;;;4.09;91.54;99407.03;5035442;28;20691;-69
2021/01/14 04:11:54;;;;;;;7.68;2.80;;;;;;;4.03;91.51;99406.38;5035319;28;20206;-71
2021/01/14 04:14:21;;;;;;;5.95;2.70;;;;;;;4.02;92.12;99401.94;5035404;28;20295;-71
2021/01/14 04:16:50;;;;;;;4.75;3.33;;;;;;;4.05;91.67;99401.81;5035152;28;20183;-72
2021/01/14 04:19:16;;;;;;;3.85;2.05;;;;;;;4.04;91.70;99405.44;5034970;28;20210;-70
2021/01/14 04:21:43;;;;;;;3.50;1.98;;;;;;;3.95;92.30;99406.63;5034982;28;20209;-71
2021/01/14 04:24:09;;;;;;;3.10;2.28;;;;;;;3.91;91.41;99404.97;5035012;28;20612;-71
2021/01/14 04:26:37;;;;;;;6.82;3.45;;;;;;;3.72;91.60;99407.41;5034899;28;20270;-70
2021/01/14 04:29:03;;;;;;;2.33;2.13;;;;;;;3.38;92.97;99411.16;5034724;28;20575;-71
2021/01/14 04:31:29;;;;;;;2.65;2.35;;;;;;;3.40;94.56;99413.78;5035084;28;20195;-72
2021/01/14 04:33:56;;;;;;;3.17;2.25;;;;;;;3.24;93.68;99411.59;5034852;28;20426;-71
2021/01/14 04:36:22;;;;;;;5.40;3.08;;;;;;;2.99;95.63;99411.47;5034268;28;20225;-70
2021/01/14 04:38:48;;;;;;;6.25;3.00;;;;;;;3.09;96.16;99417.38;5034423;28;20186;-70
2021/01/14 04:41:19;;;;;;;5.13;2.40;;;;;;;3.09;95.52;99410.25;5034759;28;20255;-71
2021/01/14 04:43:47;;;;;;;2.97;2.50;;;;;;;3.05;95.04;99410.41;5033893;28;20186;-70
2021/01/14 04:46:14;;;;;;;4.80;2.55;;;;;;;2.82;96.17;99416.41;5034430;28;20225;-69
2021/01/14 04:48:43;;;;;;;3.70;2.65;;;;;;;2.71;97.17;99420.28;5034443;28;20259;-71
2021/01/14 04:51:10;;;;;;;2.05;1.80;;;;;;;2.62;97.82;99415.22;5034639;28;20226;-70
2021/01/14 04:53:41;;;;;;;1.95;1.60;;;;;;;2.62;98.92;99425.84;5034411;28;20241;-69
2021/01/14 04:56:10;;;;;;;2.20;2.00;;;;;;;2.67;97.96;99417.75;5034428;28;20632;-70
2021/01/14 04:58:38;;;;;;;3.20;2.47;;;;;;;2.70;97.86;99420.31;5034343;28;20272;-72
2021/01/14 05:01:10;;;;;;;3.08;2.42;;;;;;;2.80;97.30;99416.44;5033974;28;20248;-72
2021/01/14 05:03:39;;;;;;;4.15;2.33;;;;;;;2.86;96.55;99412.75;5034309;28;20300;-71
2021/01/14 05:06:07;;;;;;;5.30;2.35;;;;;;;2.73;96.70;99414.91;5034364;28;20252;-69
2021/01/14 05:08:34;;;;;;;3.83;2.45;;;;;;;2.75;97.25;99412.19;5034176;28;20614;-71
2021/01/14 05:11:01;;;;;;;2.95;2.05;;;;;;;2.69;97.10;99406.16;5033985;28;20562;-71
2021/01/14 05:13:31;;;;;;;5.07;2.40;;;;;;;2.74;97.68;99406.03;5033997;28;20256;-70
2021/01/14 05:15:57;;;;;;;3.72;3.03;;;;;;;2.78;97.50;99405.03;5034010;28;20202;-70
2021/01/14 05:18:25;;;;;;;2.50;2.30;;;;;;;2.85;96.47;99405.69;5033754;28;20208;-71
2021/01/14 05:20:57;;;;;;;4.43;3.33;;;;;;;2.86;96.59;99410.97;5033900;28;20260;-70
2021/01/14 05:23:23;;;;;;;4.85;2.65;;;;;;;2.89;96.43;99415.31;5034045;28;20291;-70
2021/01/14 05:25:52;;;;;;;2.72;2.53;;;;;;;2.93;96.18;99412.50;5033831;28;20229;-70
2021/01/14 05:28:20;;;;;;;4.50;3.25;;;;;;;2.95;98.42;99425.78;5033243;28;20230;-70
2021/01/14 05:30:46;;;;;;;4.47;2.60;;;;;;;2.68;98.17;99423.00;5033501;28;20340;-70
2021/01/14 05:33:14;;;;;;;3.45;3.13;;;;;;;2.86;97.88;99423.41;5033697;28;20194;-71
2021/01/14 05:35:47;;;;;;;5.40;3.67;;;;;;;3.05;97.62;99431.69;5033377;28;20241;-69
2021/01/14 05:38:28;;;;;;;3.75;2.63;;;;;;;3.07;94.63;99425.41;5033266;28;20201;-71
2021/01/14 05:43:55;;;;;;;6.00;2.50;;;;;;;3.03;95.75;99434.41;5031261;28;20198;-71
2021/01/14 05:46:23;;;;;;;6.07;3.05;;;;;;;2.86;96.29;99426.06;5032910;28;20222;-71
2021/01/14 05:48:50;;;;;;;5.45;3.15;;;;;;;3.19;95.26;99423.28;5033338;28;20649;-70
2021/01/14 05:51:19;;;;;;;4.88;3.13;;;;;;;3.27;92.91;99431.91;5032924;28;20190;-71
2021/01/14 05:53:57;;;;;;;3.75;2.85;;;;;;;3.19;92.60;99428.59;5032797;28;20208;-70
2021/01/14 05:56:36;;;;;;;5.90;2.65;;;;;;;3.13;93.09;99430.53;5032251;28;20224;-73
2021/01/14 05:59:03;;;;;;;6.93;3.40;;;;;;;3.12;93.21;99431.47;5033013;28;20210;-69
2021/01/14 06:01:30;;;;;;;5.72;3.55;;;;;;;3.09;94.16;99431.53;5033112;28;20217;-71
2021/01/14 06:04:13;;;;;;;3.42;2.95;;;;;;;2.95;94.30;99439.06;5032932;28;20214;-71
2021/01/14 06:06:42;;;;;;;4.68;2.63;;;;;;;2.91;95.19;99440.06;5032349;28;20220;-70
2021/01/14 06:09:08;;;;;;;6.80;4.45;;;;;;;2.93;96.74;99443.56;5032802;28;20211;-70
2021/01/14 06:11:38;;;;;;;4.32;3.65;;;;;;;2.98;97.05;99441.63;5032435;28;20212;-70
2021/01/14 06:14:04;;;;;;;5.05;3.33;;;;;;;3.30;93.42;99447.78;5032527;28;20229;-69
2021/01/14 06:16:47;;;;;;;3.92;2.97;;;;;;;3.30;92.76;99447.78;5032321;28;20204;-70
2021/01/14 06:19:13;;;;;;;4.07;2.72;;;;;;;3.18;93.09;99457.00;5032175;28;20191;-70
2021/01/14 06:21:45;;;;;;;9.45;3.53;;;;;;;3.07;93.57;99459.13;5032498;28;20292;-70
2021/01/14 06:24:19;;;;;;;7.07;3.35;;;;;;;3.26;93.51;99457.66;5032277;28;20212;-71
2021/01/14 06:26:46;;;;;;;5.60;3.15;;;;;;;3.18;93.00;99457.00;5032145;28;20210;-71
2021/01/14 06:29:17;;;;;;;5.35;4.05;;;;;;;3.27;93.56;99466.50;5032035;28;20265;-70
2021/01/14 06:31:43;;;;;;;5.30;3.30;;;;;;;3.03;93.53;99469.00;5032379;28;20237;-71
2021/01/14 06:34:11;;;;;;;5.93;4.43;;;;;;;3.16;93.82;99472.13;5032432;28;20686;-71
2021/01/14 06:36:40;;;;;;;4.85;3.78;;;;;;;3.18;92.23;99480.09;5032432;28;20229;-70
2021/01/14 06:39:13;;;;;;;11.88;4.30;;;;;;;2.97;94.33;99482.47;5032098;28;20223;-69
2021/01/14 06:41:41;;;;;;;7.60;3.65;;;;;;;2.75;95.44;99470.69;5032361;28;20288;-70
2021/01/14 06:44:10;;;;;;;4.22;3.05;;;;;;;2.76;96.38;99477.75;5032342;28;20221;-70
2021/01/14 06:46:37;;;;;;;5.53;3.20;;;;;;;2.76;96.60;99473.31;5031559;28;20318;-70
2021/01/14 06:49:11;;;;;;;5.75;3.00;;;;;;;2.74;96.67;99484.88;5031980;28;20260;-71
2021/01/14 06:51:57;;;;;;;6.97;3.65;;;;;;;2.72;96.95;99491.13;5032079;28;20212;-71
2021/01/14 06:54:26;;;;;;;3.95;3.55;;;;;;;2.78;97.34;99486.56;5031687;28;20186;-69
2021/01/14 06:56:58;;;;;;;17.80;4.68;;;;;;;2.76;97.88;99489.28;5031681;28;20397;-70
2021/01/14 06:59:25;;;;;;;14.88;6.55;;;;;;;2.99;98.14;99495.72;5031982;28;20692;-70
2021/01/14 07:02:23;;;;;;;8.90;4.13;;;;;;;3.04;97.43;99493.81;5031709;28;20198;-69
2021/01/14 07:04:52;;;;;;;5.97;3.47;;;;;;;2.96;97.16;99494.00;5031767;28;20186;-71
2021/01/14 07:07:38;;;;;;;5.53;3.83;;;;;;;2.91;96.90;99493.25;5031576;28;20538;-70
2021/01/14 07:10:07;;;;;;;6.55;4.95;;;;;;;2.84;96.84;99495.22;5031787;28;20870;-69
2021/01/14 07:12:35;;;;;;;9.40;4.28;;;;;;;2.77;97.05;99488.34;5031711;28;20540;-71
2021/01/14 07:15:07;;;;;;;6.57;3.80;;;;;;;2.83;97.48;99487.31;5031564;28;20190;-69
2021/01/14 07:17:36;;;;;;;4.80;2.83;;;;;;;2.82;97.37;99498.84;5031312;28;20187;-69
2021/01/14 07:20:05;;;;;;;7.82;4.22;;;;;;;2.80;97.44;99503.34;5031478;28;20253;-71
2021/01/14 07:22:33;;;;;;;7.97;3.60;;;;;;;2.82;98.00;99499.72;5031730;28;20548;-71
2021/01/14 07:25:02;;;;;;;6.75;4.38;;;;;;;2.80;98.06;99500.69;5026947;28;20367;-70
2021/01/14 07:27:30;;;;;;;9.65;4.60;;;;;;;2.86;98.21;99504.03;5024999;28;20676;-71
2021/01/14 07:29:57;;;;;;;9.82;4.30;;;;;;;2.86;97.61;99511.16;5032069;28;20210;-70
2021/01/14 07:32:58;;;;;;;5.53;4.00;;;;;;;2.80;97.47;99511.31;5031790;28;20203;-71
2021/01/14 07:35:50;;;;;;;9.25;7.10;;;;;;;3.01;97.09;99516.03;5031523;28;20302;-72
2021/01/14 07:38:17;;;;;;;12.48;5.13;;;;;;;2.83;96.87;99521.88;5013045;28;20217;-69
2021/01/14 07:40:45;;;;;;;5.60;4.22;;;;;;;2.74;97.52;99527.44;5031975;28;20186;-70
2021/01/14 07:43:14;;;;;;;6.00;4.05;;;;;;;2.64;98.01;99542.75;5031532;28;20211;-69
2021/01/14 07:45:44;;;;;;;9.27;6.20;;;;;;;2.74;98.20;99536.31;5031510;28;20226;-70
2021/01/14 07:48:18;;;;;;;6.90;4.20;;;;;;;2.77;98.03;99530.03;5031659;28;20197;-70
2021/01/14 07:50:52;;;;;;;7.00;4.82;;;;;;;2.83;98.23;99527.19;5032233;28;20244;-69
2021/01/14 07:53:20;;;;;;;6.70;4.70;;;;;;;2.80;97.88;99536.09;5027626;28;20202;-70
2021/01/14 07:55:47;;;;;;;10.55;5.05;;;;;;;2.80;97.87;99532.59;5024501;28;20199;-70
2021/01/14 07:58:23;;;;;;;9.60;4.32;;;;;;;2.91;97.44;99536.69;5012343;28;20227;-70
2021/01/14 08:01:03;;;;;;;5.25;4.05;;;;;;;2.92;96.79;99545.56;5012218;28;20191;-70
2021/01/14 08:03:34;;;;;;;7.70;4.10;;;;;;;2.98;96.14;99541.84;5031854;28;20545;-69
2021/01/14 08:06:16;;;;;;;9.30;4.50;;;;;;;2.99;96.89;99536.50;5031472;28;20270;-70
2021/01/14 08:08:55;;;;;;;5.90;4.10;;;;;;;3.06;96.50;99535.41;5031371;28;20211;-71
2021/01/14 08:11:23;;;;;;;5.78;3.90;;;;;;;3.03;95.81;99532.84;5032375;28;20221;-70
2021/01/14 08:14:08;;;;;;;8.77;4.32;;;;;;;2.96;95.59;99530.38;5031403;28;20206;-71
2021/01/14 08:16:37;;;;;;;8.75;4.20;;;;;;;2.92;95.84;99537.59;5012091;28;20285;-70
2021/01/14 08:19:33;;;;;;;7.75;4.72;;;;;;;2.94;95.95;99541.06;5012858;28;20218;-71
2021/01/14 08:22:13;;;;;;;7.40;3.70;;;;;;;3.08;95.94;99541.53;5015613;28;20250;-69
2021/01/14 08:24:45;;;;;;;5.25;3.75;;;;;;;3.12;95.88;99535.22;5022004;28;20231;-70
2021/01/14 08:27:13;;;;;;;7.80;4.05;;;;;;;2.95;95.67;99540.16;5034708;28;20211;-71
2021/01/14 08:29:56;;;;;;;6.20;4.32;;;;;;;2.97;96.41;99543.63;5034873;28;20235;-70
2021/01/14 08:32:42;;;;;;;7.55;5.10;;;;;;;3.09;96.10;99545.94;5035217;28;20659;-71
2021/01/14 08:35:18;;;;;;;13.27;5.78;;;;;;;3.10;95.25;99541.50;5035123;28;20213;-69
2021/01/14 08:37:49;;;;;;;12.60;6.40;;;;;;;2.99;95.36;99540.94;5034673;28;20215;-70
2021/01/14 08:40:18;;;;;;;11.18;4.82;;;;;;;2.87;95.25;99547.44;5025048;28;20202;-71
2021/01/14 08:42:47;;;;;;;13.25;5.80;;;;;;;2.87;96.36;99547.44;5019245;28;20592;-70
2021/01/14 08:45:19;;;;;;;9.63;5.50;;;;;;;2.91;96.37;99551.78;5033011;28;20649;-70
2021/01/14 08:48:03;;;;;;;18.25;5.88;;;;;;;2.98;97.20;99558.66;5014800;28;20223;-69
2021/01/14 08:50:44;;;;;;;13.63;5.95;;;;;;;3.15;96.43;99563.53;5015163;28;20220;-69
2021/01/14 08:53:12;;;;;;;7.13;4.22;;;;;;;3.04;95.75;99569.16;5015150;28;20622;-70
2021/01/14 08:55:39;;;;;;;7.20;4.75;;;;;;;2.97;95.94;99572.03;5014989;28;20593;-70
2021/01/14 08:58:07;;;;;;;10.02;4.40;;;;;;;3.02;95.91;99570.09;5020226;28;20215;-70
2021/01/14 09:00:37;;;;;;;8.30;4.65;;;;;;;3.06;95.78;99580.63;5017084;28;20653;-70
2021/01/14 09:03:05;;;;;;;8.32;4.80;;;;;;;3.12;95.31;99580.47;5015413;28;20217;-71
2021/01/14 09:05:31;;;;;;;7.45;4.60;;;;;;;2.85;95.40;99594.50;5014964;28;20214;-71
2021/01/14 09:08:05;;;;;;;7.05;5.05;;;;;;;2.95;96.27;99598.66;5014925;28;20282;-71
2021/01/14 09:10:51;;;;;;;10.00;5.28;;;;;;;3.01;96.52;99593.19;5014821;28;20206;-69
2021/01/14 09:13:20;;;;;;;11.45;5.18;;;;;;;2.98;96.32;99598.56;5021049;28;20260;-69
2021/01/14 09:15:48;;;;;;;9.07;4.72;;;;;;;3.04;96.72;99586.91;5034965;28;20198;-71
2021/01/14 09:18:17;;;;;;;8.07;5.75;;;;;;;2.87;96.62;99590.00;5034349;28;20215;-71
2021/01/14 09:20:52;;;;;;;9.23;5.78;;;;;;;2.91;97.05;99586.34;5021628;28;20245;-71
2021/01/14 09:23:21;;;;;;;10.32;6.00;;;;;;;3.14;97.06;99599.00;5014409;28;20217;-70
2021/01/14 09:25:50;;;;;;;8.52;6.15;;;;;;;3.12;95.88;99591.09;5014097;28;20204;-71
2021/01/14 09:28:19;;;;;;;8.77;5.05;;;;;;;3.34;95.61;99594.00;5013963;28;20255;-71
2021/01/14 09:30:53;;;;;;;10.60;4.63;;;;;;;3.30;95.08;99602.13;5014558;28;20633;-72
2021/01/14 09:33:22;;;;;;;7.22;5.00;;;;;;;3.37;93.77;99603.72;5014079;28;20210;-71
2021/01/14 09:36:08;;;;;;;9.65;5.38;;;;;;;3.18;94.27;99608.66;5025273;28;20209;-71
2021/01/14 09:38:40;;;;;;;10.70;4.43;;;;;;;3.15;94.39;99603.44;5033814;28;20233;-72
2021/01/14 09:41:07;;;;;;;4.93;3.97;;;;;;;3.19;95.33;99612.19;5033845;28;20252;-72
2021/01/14 09:43:35;;;;;;;8.73;4.35;;;;;;;3.21;94.88;99618.34;5031820;28;20288;-71
2021/01/14 09:46:03;;;;;;;9.73;5.70;;;;;;;3.18;95.25;99616.66;5033639;28;20648;-71
2021/01/14 09:48:33;;;;;;;11.20;6.07;;;;;;;3.17;94.61;99617.59;5033633;28;20569;-71
2021/01/14 09:51:07;;;;;;;11.63;5.72;;;;;;;3.13;94.25;99626.56;5033502;28;20206;-71
2021/01/14 09:53:33;;;;;;;10.18;5.63;;;;;;;3.13;94.10;99637.19;5033795;28;20283;-70
2021/01/14 09:56:03;;;;;;;8.20;5.82;;;;;;;3.12;94.70;99641.66;5032926;28;20707;-71
2021/01/14 09:58:32;;;;;;;8.75;5.07;;;;;;;3.13;94.10;99647.84;5033615;28;20297;-71
2021/01/14 10:01:02;;;;;;;6.97;4.60;;;;;;;3.17;94.34;99643.31;5033160;28;20671;-71
2021/01/14 10:03:32;;;;;;;8.52;5.70;;;;;;;3.17;94.58;99654.84;5013794;28;20206;-70
2021/01/14 10:06:00;;;;;;;10.02;4.47;;;;;;;3.08;93.90;99655.09;5013787;28;20634;-70
2021/01/14 10:08:30;;;;;;;9.48;3.72;;;;;;;3.11;94.80;99663.84;5013510;28;20219;-69
2021/01/14 10:10:58;;;;;;;9.15;5.10;;;;;;;3.20;94.35;99664.50;5014693;28;20218;-73
2021/01/14 10:13:24;;;;;;;5.60;3.70;;;;;;;3.17;94.00;99661.94;5014044;28;20211;-69
2021/01/14 10:15:51;;;;;;;5.63;3.65;;;;;;;3.05;93.72;99664.03;5013390;28;20206;-70
2021/01/14 10:18:40;;;;;;;6.35;3.60;;;;;;;3.20;93.89;99659.19;5013506;28;20556;-70
2021/01/14 10:21:07;;;;;;;6.95;3.50;;;;;;;3.36;93.78;99662.31;4953217;29;20220;-69
2021/01/14 10:23:34;;;;;;;5.07;3.30;;;;;;;3.45;93.38;99651.41;4952598;29;20213;-70
2021/01/14 10:26:01;;;;;;;4.10;3.50;;;;;;;3.42;92.85;99660.34;4952668;29;20214;-69
2021/01/14 10:28:27;;;;;;;5.78;3.70;;;;;;;3.49;92.32;99656.59;4952801;29;20643;-72
2021/01/14 10:30:54;;;;;;;5.97;4.47;;;;;;;3.67;91.26;99649.00;4965800;28;20290;-69
2021/01/14 10:33:21;;;;;;;9.95;5.60;;;;;;;3.65;90.43;99641.03;4972274;28;20212;-69
2021/01/14 10:35:55;;;;;;;11.20;5.80;;;;;;;3.76;90.38;99636.28;4971789;28;20207;-70
2021/01/14 10:38:22;;;;;;;11.20;5.93;;;;;;;3.74;90.21;99634.59;4971706;28;20226;-71
2021/01/14 10:40:51;;;;;;;6.90;5.57;;;;;;;3.88;89.60;99631.50;4971689;28;20213;-71
2021/01/14 10:43:29;;;;;;;12.52;5.50;;;;;;;3.95;89.07;99627.72;4970995;28;20203;-71
2021/01/14 10:45:56;;;;;;;7.78;4.65;;;;;;;3.89;89.22;99639.47;4971462;28;20267;-71
2021/01/14 10:48:22;;;;;;;9.35;4.53;;;;;;;3.85;87.83;99635.13;4972289;28;20227;-71
2021/01/14 10:50:51;;;;;;;8.98;4.10;;;;;;;3.56;87.31;99643.97;4971776;28;20193;-71
2021/01/14 10:53:27;;;;;;;7.38;3.90;;;;;;;3.63;87.39;99632.22;4971524;28;20211;-71
2021/01/14 10:56:07;;;;;;;5.57;3.50;;;;;;;3.54;87.64;99630.69;4971603;28;20212;-71
2021/01/14 10:58:34;;;;;;;4.97;3.50;;;;;;;3.63;86.66;99631.38;5011294;28;20210;-71
2021/01/14 11:01:01;;;;;;;5.03;3.78;;;;;;;3.36;88.14;99622.38;5031754;28;20209;-71
2021/01/14 11:03:29;;;;;;;4.65;3.85;;;;;;;3.56;87.83;99630.66;5024927;28;20225;-71
2021/01/14 11:05:58;;;;;;;5.32;3.38;;;;;;;3.59;87.25;99627.03;5026815;28;20216;-71
2021/01/14 11:08:27;;;;;;;5.32;3.75;;;;;;;3.53;87.54;99626.31;5012864;28;20216;-70
2021/01/14 11:11:04;;;;;;;4.97;3.50;;;;;;;3.51;87.97;99622.81;5012577;28;20214;-70
2021/01/14 11:13:42;;;;;;;6.07;3.95;;;;;;;3.54;87.65;99622.72;5012769;28;20216;-71
2021/01/14 11:16:10;;;;;;;3.60;2.50;;;;;;;3.59;87.83;99619.06;5012626;28;20214;-70
2021/01/14 11:18:38;;;;;;;3.83;3.05;;;;;;;3.61;87.26;99609.22;5012384;28;20210;-71
2021/01/14 11:21:05;;;;;;;3.05;2.80;;;;;;;3.93;84.92;99609.16;5021792;28;20203;-72
2021/01/14 11:23:33;;;;;;;3.10;2.35;;;;;;;3.75;82.49;99615.00;5032132;28;20275;-69
2021/01/14 11:26:02;;;;;;;1.83;1.73;;;;;;;3.65;83.41;99617.09;5030189;28;20210;-70
2021/01/14 11:28:28;;;;;;;1.88;1.77;;;;;;;3.46;84.68;99615.88;5032219;28;20286;-71
2021/01/14 11:30:55;;;;;;;2.97;2.50;;;;;;;3.62;85.17;99614.53;5032179;28;20206;-70
2021/01/14 11:33:21;;;;;;;2.40;1.33;;;;;;;3.53;85.42;99617.47;5032305;28;20187;-72
2021/01/14 11:35:48;;;;;;;2.83;2.00;;;;;;;3.49;84.51;99619.31;5015604;28;20217;-70
2021/01/14 11:38:14;;;;;;;1.25;1.15;;;;;;;3.46;84.11;99614.09;5012417;28;20239;-71
2021/01/14 11:40:41;;;;;;;1.60;1.50;;;;;;;3.51;82.58;99611.31;5012149;28;20204;-69
2021/01/14 11:43:08;;;;;;;2.05;1.35;;;;;;;3.63;82.11;99612.72;5012671;28;20315;-71
2021/01/14 11:45:34;;;;;;;2.25;1.63;;;;;;;3.74;82.15;99614.16;5025403;28;20206;-71
2021/01/14 11:48:01;;;;;;;1.75;1.27;;;;;;;3.84;81.18;99616.53;5031667;28;20225;-70
2021/01/14 11:50:27;;;;;;;3.58;1.75;;;;;;;3.84;80.68;99611.19;5031988;28;20295;-72
2021/01/14 11:52:53;;;;;;;1.85;1.17;;;;;;;3.57;80.27;99612.91;5032109;28;20218;-69
2021/01/14 11:55:22;;;;;;;1.63;1.52;;;;;;;3.90;81.34;99608.34;5030762;28;20298;-71